createdAt,value
2023-01-13T00:00:02.417Z,8.35
2023-01-13T00:05:02.657Z,8.38
2023-01-13T00:10:03.097Z,8.24
2023-01-13T00:15:03.014Z,8.4
2023-01-13T00:20:02.693Z,8.47
2023-01-13T00:25:02.607Z,8.33
2023-01-13T00:30:02.422Z,8.3
2023-01-13T00:35:03.141Z,8.23
2023-01-13T00:40:03.116Z,8.27
2023-01-13T00:45:03.435Z,8.56
2023-01-13T00:50:03.015Z,8.5
2023-01-13T00:55:03.350Z,8.51
2023-01-13T01:00:02.627Z,8.65
2023-01-13T01:05:02.297Z,8.72
2023-01-13T01:10:02.276Z,8.71
2023-01-13T01:15:02.952Z,8.65
2023-01-13T01:20:03.066Z,8.8
2023-01-13T01:25:03.242Z,8.74
2023-01-13T01:30:03.292Z,8.81
2023-01-13T01:35:02.805Z,8.62
2023-01-13T01:40:03.276Z,8.73
2023-01-13T01:45:02.504Z,8.61
2023-01-13T01:50:02.342Z,8.53
2023-01-13T01:55:04.303Z,8.63
2023-01-13T02:00:02.885Z,8.65
2023-01-13T02:05:02.769Z,8.86
2023-01-13T02:10:03.115Z,8.59
2023-01-13T02:15:02.493Z,8.51
2023-01-13T02:20:03.181Z,8.35
2023-01-13T02:25:02.277Z,8.45
2023-01-13T02:30:03.150Z,8.32
2023-01-13T02:35:02.878Z,8.47
2023-01-13T02:40:02.578Z,8.57
2023-01-13T02:45:02.349Z,8.45
2023-01-13T02:50:02.305Z,8.47
2023-01-13T02:55:02.919Z,8.82
2023-01-13T03:00:03.091Z,8.65
2023-01-13T03:05:03.145Z,8.66
2023-01-13T03:10:03.156Z,8.29
2023-01-13T03:15:02.742Z,8.18
2023-01-13T03:20:02.658Z,8.04
2023-01-13T03:25:02.436Z,8.16
2023-01-13T03:30:02.257Z,8.2
2023-01-13T03:35:02.889Z,8.18
2023-01-13T03:40:02.936Z,8.35
2023-01-13T03:45:02.730Z,8.32
2023-01-13T03:50:02.545Z,8.14
2023-01-13T03:55:04.011Z,8.38
2023-01-13T04:00:02.799Z,8.43
2023-01-13T04:05:02.914Z,8.5
2023-01-13T04:10:02.599Z,8.35
2023-01-13T04:15:02.637Z,8.46
2023-01-13T04:20:02.367Z,8.52
2023-01-13T04:25:02.495Z,8.49
2023-01-13T04:30:02.396Z,8.49
2023-01-13T04:35:02.201Z,8.49
2023-01-13T04:40:03.067Z,8.4
2023-01-13T04:45:03.030Z,8.49
2023-01-13T04:50:02.693Z,8.73
2023-01-13T04:55:03.116Z,8.85
2023-01-13T05:00:03.149Z,8.87
2023-01-13T05:05:03.078Z,8.8
2023-01-13T05:10:02.951Z,8.83
2023-01-13T05:15:02.687Z,8.86
2023-01-13T05:20:02.430Z,8.77
2023-01-13T05:25:03.169Z,8.94
2023-01-13T05:30:03.032Z,8.97
2023-01-13T05:35:02.499Z,9.18
2023-01-13T05:40:02.428Z,9.31
2023-01-13T05:45:03.207Z,9.23
2023-01-13T05:50:02.891Z,9.05
2023-01-13T05:55:03.413Z,9.19
2023-01-13T06:00:02.473Z,8.94
2023-01-13T06:05:02.265Z,9.06
2023-01-13T06:10:03.078Z,9.07
2023-01-13T06:15:02.816Z,9.2
2023-01-13T06:20:02.494Z,9.05
2023-01-13T06:25:02.215Z,9.18
2023-01-13T06:30:02.956Z,9.08
2023-01-13T06:35:05.353Z,8.69
2023-01-13T06:40:02.798Z,8.15
2023-01-13T06:45:03.127Z,7.84
2023-01-13T06:50:03.136Z,7.89
2023-01-13T06:55:03.957Z,7.9
2023-01-13T07:00:02.796Z,7.91
2023-01-13T07:05:02.422Z,7.89
2023-01-13T07:10:02.539Z,7.9
2023-01-13T07:15:02.640Z,7.83
2023-01-13T07:20:03.162Z,7.7
2023-01-13T07:25:02.249Z,7.6
2023-01-13T07:30:02.295Z,7.58
2023-01-13T07:35:02.208Z,7.58
2023-01-13T07:40:02.223Z,7.6
2023-01-13T07:45:03.072Z,7.54
2023-01-13T07:50:02.920Z,7.5
2023-01-13T07:55:03.795Z,7.42
2023-01-13T08:00:02.772Z,7.7
2023-01-13T08:05:02.548Z,7.7
2023-01-13T08:10:02.311Z,7.66
2023-01-13T08:15:03.063Z,7.66
2023-01-13T08:20:02.807Z,7.56
2023-01-13T08:25:02.566Z,7.82
2023-01-13T08:30:02.355Z,7.49
2023-01-13T08:35:02.949Z,7.37
2023-01-13T08:40:02.705Z,7.32
2023-01-13T08:45:02.738Z,7.36
2023-01-13T08:50:02.489Z,7.24
2023-01-13T08:55:02.861Z,7.15
2023-01-13T09:00:03.000Z,7.22
2023-01-13T09:05:02.802Z,7.21
2023-01-13T09:10:02.782Z,7.13
2023-01-13T09:15:02.481Z,7.12
2023-01-13T09:20:02.346Z,7.24
2023-01-13T09:25:02.213Z,7.34
2023-01-13T09:30:03.040Z,7.27
2023-01-13T09:35:03.412Z,7.24
2023-01-13T09:40:02.473Z,7.17
2023-01-13T09:45:02.254Z,7.22
2023-01-13T09:50:02.877Z,7.16
2023-01-13T09:55:03.396Z,7.21
2023-01-13T10:00:03.049Z,7.13
2023-01-13T10:05:02.839Z,7.1
2023-01-13T10:10:02.685Z,7.07
2023-01-13T10:15:02.685Z,7.03
2023-01-13T10:20:02.707Z,7.05
2023-01-13T10:25:02.444Z,7.11
2023-01-13T10:30:02.255Z,7.07
2023-01-13T10:35:02.907Z,7.11
2023-01-13T10:40:02.721Z,7.05
2023-01-13T10:45:02.559Z,7.49
2023-01-13T10:50:02.188Z,8.12
2023-01-13T10:55:03.509Z,8.05
2023-01-13T11:00:02.655Z,8.11
2023-01-13T11:05:02.359Z,8.24
2023-01-13T11:10:02.228Z,8.47
2023-01-13T11:15:02.993Z,8.62
2023-01-13T11:20:02.850Z,8.54
2023-01-13T11:25:02.697Z,8.64
2023-01-13T11:30:02.501Z,8.67
2023-01-13T11:35:02.302Z,8.67
2023-01-13T11:40:02.294Z,8.75
2023-01-13T11:45:03.071Z,8.74
2023-01-13T11:50:02.874Z,8.87
2023-01-13T11:55:02.907Z,8.92
2023-01-13T12:00:02.483Z,9
2023-01-13T12:05:03.068Z,9.29
2023-01-13T12:10:03.691Z,9.2
2023-01-13T12:15:02.251Z,9.09
2023-01-13T12:20:02.553Z,9.47
2023-01-13T12:25:03.175Z,9.24
2023-01-13T12:30:02.912Z,9.32
2023-01-13T12:35:02.592Z,9.36
2023-01-13T12:40:02.340Z,8.95
2023-01-13T12:45:02.973Z,8.85
2023-01-13T12:50:02.728Z,8.84
2023-01-13T12:55:03.245Z,8.66
2023-01-13T13:00:02.546Z,9.14
2023-01-13T13:05:02.294Z,9.04
2023-01-13T13:10:02.973Z,9.24
2023-01-13T13:15:03.685Z,9.2
2023-01-13T13:20:02.716Z,9.5
2023-01-13T13:25:02.449Z,9.56
2023-01-13T13:30:02.249Z,9.27
2023-01-13T13:35:02.899Z,8.99
2023-01-13T13:40:03.169Z,9.04
2023-01-13T13:45:02.908Z,8.61
2023-01-13T13:50:02.516Z,8.29
2023-01-13T13:55:02.797Z,8.49
2023-01-13T14:00:02.388Z,8.29
2023-01-13T14:05:02.520Z,8.12
2023-01-13T14:10:02.371Z,8.94
2023-01-13T14:15:02.647Z,9.03
2023-01-13T14:20:02.277Z,8.51
2023-01-13T14:25:03.050Z,8.28
2023-01-13T14:30:02.769Z,8.02
2023-01-13T14:35:02.772Z,7.82
2023-01-13T14:40:02.766Z,7.88
2023-01-13T14:45:02.338Z,7.95
2023-01-13T14:50:02.131Z,7.82
2023-01-13T14:55:03.234Z,7.61
2023-01-13T15:00:02.716Z,7.33
2023-01-13T15:05:02.528Z,7.76
2023-01-13T15:10:02.420Z,7.47
2023-01-13T15:15:02.231Z,7.33
2023-01-13T15:20:03.103Z,7.27
2023-01-13T15:25:02.954Z,7.25
2023-01-13T15:30:02.794Z,6.4
2023-01-13T15:35:02.597Z,6.18
2023-01-13T15:40:02.716Z,6.01
2023-01-13T15:45:02.455Z,6.07
2023-01-13T15:50:03.136Z,6.08
2023-01-13T15:55:03.716Z,6.41
2023-01-13T16:00:02.539Z,6.65
2023-01-13T16:05:02.265Z,6.57
2023-01-13T16:10:03.004Z,6.51
2023-01-13T16:15:03.746Z,6.6
2023-01-13T16:20:02.657Z,6.71
2023-01-13T16:25:02.735Z,6.95
2023-01-13T16:30:02.745Z,6.71
2023-01-13T16:35:03.088Z,7.18
2023-01-13T16:40:03.021Z,7.46
2023-01-13T16:45:02.727Z,7.42
2023-01-13T16:50:02.575Z,7.21
2023-01-13T16:55:03.210Z,7.04
2023-01-13T17:00:02.351Z,6.55
2023-01-13T17:10:02.548Z,6.28
2023-01-13T17:15:02.355Z,6.19
2023-01-13T17:20:03.026Z,6.29
2023-01-13T17:25:02.836Z,6.2
2023-01-13T17:30:02.553Z,6.15
2023-01-13T17:35:02.684Z,6.56
2023-01-13T17:40:02.372Z,6.67
2023-01-13T17:45:02.240Z,6.58
2023-01-13T17:50:02.876Z,6.66
2023-01-13T17:55:03.311Z,6.64
2023-01-13T18:00:02.529Z,6.51
2023-01-13T18:05:02.788Z,6.55
2023-01-13T18:10:02.640Z,6.7
2023-01-13T18:15:02.339Z,6.8
2023-01-13T18:20:03.158Z,6.53
2023-01-13T18:25:02.907Z,6.71
2023-01-13T18:30:02.806Z,6.65
2023-01-13T18:35:05.919Z,6.49
2023-01-13T18:40:02.919Z,6.56
2023-01-13T18:45:02.632Z,6.52
2023-01-13T18:50:02.456Z,6.55
2023-01-13T18:55:03.232Z,6.43
2023-01-13T19:00:03.224Z,5.99
2023-01-13T19:05:03.098Z,6.28
2023-01-13T19:10:02.772Z,5.89
2023-01-13T19:15:02.549Z,6.19
2023-01-13T19:20:02.253Z,6.43
2023-01-13T19:25:03.036Z,6.3
2023-01-13T19:30:02.969Z,6.4
2023-01-13T19:35:02.674Z,6.21
2023-01-13T19:40:02.457Z,6.33
2023-01-13T19:45:02.492Z,6.19
2023-01-13T19:50:02.222Z,6.04
2023-01-13T19:55:02.899Z,6.22
2023-01-13T20:00:03.065Z,5.95
2023-01-13T20:05:02.644Z,5.84
2023-01-13T20:10:02.896Z,6.07
2023-01-13T20:15:02.647Z,5.57
2023-01-13T20:20:02.438Z,5.87
2023-01-13T20:25:02.253Z,5.75
2023-01-13T20:30:02.987Z,5.92
2023-01-13T20:35:02.993Z,5.78
2023-01-13T20:40:02.681Z,5.58
2023-01-13T20:45:02.655Z,5.58
2023-01-13T20:50:07.337Z,5.68
2023-01-13T20:55:04.064Z,5.82
2023-01-13T21:00:02.978Z,5.96
2023-01-13T21:05:02.874Z,6.05
2023-01-13T21:10:03.095Z,6.15
2023-01-13T21:15:02.483Z,6.13
2023-01-13T21:20:04.289Z,6.2
2023-01-13T21:25:02.390Z,6.32
2023-01-13T21:30:03.152Z,6.44
2023-01-13T21:35:03.018Z,6.23
2023-01-13T21:40:02.850Z,6.15
2023-01-13T21:45:02.617Z,5.97
2023-01-13T21:50:02.315Z,5.91
2023-01-13T21:55:03.833Z,5.64
2023-01-13T22:00:02.620Z,5.57
2023-01-13T22:05:02.518Z,6.14
2023-01-13T22:10:02.327Z,5.86
2023-01-13T22:15:03.241Z,6.04
2023-01-13T22:20:02.765Z,6.11
2023-01-13T22:25:02.757Z,5.97
2023-01-13T22:30:02.818Z,5.97
2023-01-13T22:35:02.953Z,5.88
2023-01-13T22:40:02.590Z,5.75
2023-01-13T22:45:02.591Z,5.6
2023-01-13T22:50:02.218Z,5.39
2023-01-13T22:55:03.343Z,5.66
2023-01-13T23:00:02.537Z,5.52
2023-01-13T23:05:03.155Z,5.64
2023-01-13T23:10:02.832Z,5.58
2023-01-13T23:15:02.508Z,5.9
2023-01-13T23:20:02.634Z,5.77
2023-01-13T23:25:02.391Z,5.75
2023-01-13T23:30:03.209Z,5.4
2023-01-13T23:35:02.871Z,5.53
2023-01-13T23:40:02.585Z,5.64
2023-01-13T23:45:02.295Z,5.76
2023-01-13T23:50:02.938Z,5.72
2023-01-13T23:55:03.058Z,5.88
